createdAt,value
2018-07-09T00:01:09.324Z,63.90
2018-07-09T00:03:37.569Z,64.10
2018-07-09T00:06:05.921Z,65.20
2018-07-09T00:08:34.087Z,65.00
2018-07-09T00:11:06.180Z,65.40
2018-07-09T00:13:35.354Z,66.30
2018-07-09T00:16:03.728Z,66.90
2018-07-09T00:18:32.214Z,67.50
2018-07-09T00:21:00.354Z,68.10
2018-07-09T00:23:28.601Z,68.80
2018-07-09T00:25:58.429Z,69.50
2018-07-09T00:28:26.780Z,70.20
2018-07-09T00:30:54.896Z,70.30
2018-07-09T00:33:23.816Z,70.50
2018-07-09T00:35:52.124Z,70.90
2018-07-09T00:38:20.752Z,71.10
2018-07-09T00:40:48.919Z,71.70
2018-07-09T00:43:17.552Z,72.00
2018-07-09T00:45:45.769Z,72.10
2018-07-09T00:48:14.052Z,72.20
2018-07-09T00:50:42.256Z,72.50
2018-07-09T00:53:10.434Z,72.90
2018-07-09T00:55:38.710Z,73.30
2018-07-09T00:58:07.092Z,73.60
2018-07-09T01:00:35.230Z,73.80
2018-07-09T01:03:03.448Z,74.10
2018-07-09T01:05:32.158Z,74.60
2018-07-09T01:08:01.026Z,75.00
2018-07-09T01:10:29.140Z,75.30
2018-07-09T01:12:57.520Z,75.70
2018-07-09T01:15:25.779Z,76.40
2018-07-09T01:17:54.138Z,76.60
2018-07-09T01:20:22.311Z,77.30
2018-07-09T01:22:50.671Z,77.50
2018-07-09T01:25:18.799Z,77.80
2018-07-09T01:27:46.967Z,78.20
2018-07-09T01:30:16.470Z,78.60
2018-07-09T01:32:44.652Z,78.60
2018-07-09T01:35:13.659Z,78.90
2018-07-09T01:37:42.349Z,79.40
2018-07-09T01:40:10.885Z,79.60
2018-07-09T01:42:39.011Z,79.80
2018-07-09T01:45:07.170Z,80.00
2018-07-09T01:47:35.297Z,80.10
2018-07-09T01:50:04.601Z,80.40
2018-07-09T01:52:33.932Z,80.50
2018-07-09T01:55:03.429Z,80.70
2018-07-09T01:57:31.701Z,80.80
2018-07-09T01:59:59.967Z,81.20
2018-07-09T02:02:28.251Z,81.70
2018-07-09T02:04:56.452Z,81.50
2018-07-09T02:07:24.671Z,80.60
2018-07-09T02:09:52.813Z,79.60
2018-07-09T02:12:21.269Z,79.10
2018-07-09T02:14:49.414Z,79.20
2018-07-09T02:17:17.540Z,79.20
2018-07-09T02:19:45.764Z,79.50
2018-07-09T02:22:14.142Z,79.60
2018-07-09T02:24:42.465Z,79.90
2018-07-09T02:27:10.931Z,79.80
2018-07-09T02:29:39.105Z,79.90
2018-07-09T02:32:07.693Z,80.00
2018-07-09T02:34:35.974Z,80.00
2018-07-09T02:37:04.138Z,80.10
2018-07-09T02:39:32.272Z,80.10
2018-07-09T02:42:02.298Z,80.20
2018-07-09T02:44:30.471Z,80.40
2018-07-09T02:46:58.888Z,80.60
2018-07-09T02:49:27.028Z,80.70
2018-07-09T02:51:55.142Z,81.00
2018-07-09T02:54:23.398Z,81.40
2018-07-09T02:56:51.920Z,81.70
2018-07-09T02:59:20.014Z,81.80
2018-07-09T03:01:48.180Z,82.10
2018-07-09T03:04:17.051Z,82.20
2018-07-09T03:06:45.199Z,82.30
2018-07-09T03:09:13.370Z,82.30
2018-07-09T03:11:41.544Z,82.50
2018-07-09T03:14:09.680Z,82.40
2018-07-09T03:16:37.825Z,82.20
2018-07-09T03:19:07.150Z,82.50
2018-07-09T03:21:35.336Z,82.10
2018-07-09T03:24:03.439Z,82.20
2018-07-09T03:26:33.151Z,82.20
2018-07-09T03:29:01.280Z,82.40
2018-07-09T03:31:29.400Z,82.50
2018-07-09T03:33:57.523Z,83.10
2018-07-09T03:36:25.972Z,82.30
2018-07-09T03:38:54.104Z,82.00
2018-07-09T03:41:23.820Z,81.90
2018-07-09T03:43:52.404Z,82.00
2018-07-09T03:46:20.614Z,81.90
2018-07-09T03:48:48.712Z,81.80
2018-07-09T03:51:16.874Z,81.80
2018-07-09T03:53:45.095Z,81.70
2018-07-09T03:56:13.257Z,81.50
2018-07-09T03:58:41.574Z,81.50
2018-07-09T04:03:38.476Z,81.30
2018-07-09T04:06:06.841Z,81.00
2018-07-09T04:08:34.956Z,80.60
2018-07-09T04:11:03.314Z,80.20
2018-07-09T04:13:31.474Z,80.10
2018-07-09T04:15:59.722Z,79.70
2018-07-09T04:18:28.348Z,79.10
2018-07-09T04:23:26.031Z,79.10
2018-07-09T04:25:54.366Z,79.00
2018-07-09T04:28:22.754Z,79.00
2018-07-09T04:30:50.958Z,78.80
2018-07-09T04:33:19.373Z,78.90
2018-07-09T04:35:48.568Z,79.00
2018-07-09T04:38:16.961Z,78.90
2018-07-09T04:40:46.503Z,79.00
2018-07-09T04:43:14.625Z,79.00
2018-07-09T04:45:42.724Z,78.40
2018-07-09T04:48:11.574Z,78.50
2018-07-09T04:50:39.677Z,78.20
2018-07-09T04:53:07.827Z,77.90
2018-07-09T04:55:35.965Z,77.60
2018-07-09T04:58:04.168Z,76.10
2018-07-09T05:00:32.377Z,72.80
2018-07-09T05:03:00.580Z,69.90
2018-07-09T05:05:28.990Z,66.40
2018-07-09T05:07:57.431Z,64.60
2018-07-09T05:10:25.747Z,62.40
2018-07-09T05:12:54.262Z,60.60
2018-07-09T05:15:22.522Z,59.10
2018-07-09T05:17:50.738Z,57.70
2018-07-09T05:20:18.893Z,56.60
2018-07-09T05:22:47.114Z,56.00
2018-07-09T05:25:15.313Z,56.30
2018-07-09T05:27:43.529Z,56.10
2018-07-09T05:30:11.738Z,55.70
2018-07-09T05:32:39.871Z,55.80
2018-07-09T05:35:08.131Z,56.80
2018-07-09T05:37:37.272Z,56.50
2018-07-09T05:40:05.643Z,57.00
2018-07-09T05:45:01.784Z,58.40
2018-07-09T05:47:29.947Z,59.50
2018-07-09T05:49:58.066Z,61.00
2018-07-09T05:52:26.211Z,62.20
2018-07-09T05:54:54.819Z,63.20
2018-07-09T05:57:23.383Z,62.30
2018-07-09T05:59:51.488Z,61.00
2018-07-09T06:02:19.945Z,60.80
2018-07-09T06:04:48.087Z,59.80
2018-07-09T06:07:16.412Z,58.80
2018-07-09T06:09:44.632Z,58.30
2018-07-09T06:12:12.833Z,57.60
2018-07-09T06:14:41.809Z,56.70
2018-07-09T06:17:11.704Z,56.10
2018-07-09T06:19:41.319Z,55.50
2018-07-09T06:22:09.513Z,55.10
2018-07-09T06:24:37.713Z,54.90
2018-07-09T06:27:06.251Z,55.20
2018-07-09T06:29:36.192Z,55.10
2018-07-09T06:32:05.666Z,55.40
2018-07-09T06:34:33.841Z,54.80
2018-07-09T06:37:02.767Z,54.30
2018-07-09T06:39:30.954Z,55.00
2018-07-09T06:41:59.588Z,55.50
2018-07-09T06:44:28.014Z,55.90
2018-07-09T06:46:57.809Z,56.00
2018-07-09T06:49:26.160Z,56.30
2018-07-09T06:51:55.908Z,56.70
2018-07-09T06:54:24.507Z,56.80
2018-07-09T06:56:52.688Z,56.80
2018-07-09T06:59:20.962Z,57.00
2018-07-09T07:01:51.912Z,56.30
2018-07-09T07:04:20.052Z,56.20
2018-07-09T07:06:48.152Z,56.10
2018-07-09T07:09:16.362Z,56.00
2018-07-09T07:11:44.482Z,56.20
2018-07-09T07:14:12.658Z,56.60
2018-07-09T07:16:40.845Z,56.80
2018-07-09T07:19:09.497Z,57.30
2018-07-09T07:21:37.813Z,57.20
2018-07-09T07:24:07.145Z,57.40
2018-07-09T07:26:35.455Z,57.40
2018-07-09T07:29:03.595Z,57.80
2018-07-09T07:31:32.465Z,57.80
2018-07-09T07:34:00.582Z,58.10
2018-07-09T07:36:29.032Z,57.90
2018-07-09T07:38:57.252Z,57.80
2018-07-09T07:41:25.342Z,57.60
2018-07-09T07:43:53.892Z,57.10
2018-07-09T07:46:22.005Z,56.80
2018-07-09T07:48:50.128Z,56.70
2018-07-09T07:51:19.583Z,56.50
2018-07-09T07:53:48.085Z,56.70
2018-07-09T07:56:16.235Z,56.90
2018-07-09T07:58:44.494Z,56.70
2018-07-09T08:01:12.605Z,56.50
2018-07-09T08:03:43.073Z,56.10
2018-07-09T08:06:11.225Z,56.00
2018-07-09T08:08:39.639Z,56.10
2018-07-09T08:13:36.638Z,56.40
2018-07-09T08:16:06.045Z,56.40
2018-07-09T08:18:34.223Z,56.60
2018-07-09T08:21:03.085Z,56.20
2018-07-09T08:25:59.601Z,55.10
2018-07-09T08:28:27.733Z,55.80
2018-07-09T08:30:55.904Z,55.30
2018-07-09T08:35:53.871Z,53.90
2018-07-09T08:38:22.113Z,53.00
2018-07-09T08:40:50.276Z,53.20
2018-07-09T08:43:18.521Z,53.30
2018-07-09T08:45:49.466Z,53.60
2018-07-09T08:48:17.595Z,53.90
2018-07-09T08:50:45.878Z,53.60
2018-07-09T08:53:14.140Z,54.30
2018-07-09T08:55:42.737Z,55.10
2018-07-09T08:58:11.013Z,54.50
2018-07-09T09:00:42.105Z,53.40
2018-07-09T09:03:12.665Z,52.50
2018-07-09T09:05:42.049Z,52.50
2018-07-09T09:08:11.221Z,51.90
2018-07-09T09:10:40.602Z,51.90
2018-07-09T09:13:08.757Z,51.70
2018-07-09T09:15:39.347Z,52.50
2018-07-09T09:18:09.221Z,51.30
2018-07-09T09:20:37.571Z,50.50
2018-07-09T09:23:06.126Z,49.20
2018-07-09T09:25:36.324Z,48.20
2018-07-09T09:28:04.893Z,47.40
2018-07-09T09:30:33.079Z,46.20
2018-07-09T09:33:02.280Z,45.20
2018-07-09T09:35:31.333Z,44.90
2018-07-09T09:37:59.415Z,44.00
2018-07-09T09:40:27.528Z,43.70
2018-07-09T09:42:56.141Z,41.40
2018-07-09T09:45:24.333Z,37.20
2018-07-09T09:47:52.461Z,37.60
2018-07-09T09:50:20.563Z,37.70
2018-07-09T09:52:48.756Z,39.00
2018-07-09T09:55:16.981Z,39.50
2018-07-09T09:57:45.194Z,39.40
2018-07-09T10:02:41.449Z,40.00
2018-07-09T10:05:09.651Z,40.00
2018-07-09T10:07:37.797Z,40.30
2018-07-09T10:10:06.273Z,40.90
2018-07-09T10:12:34.461Z,41.00
2018-07-09T10:15:03.878Z,41.30
2018-07-09T10:17:33.925Z,42.80
2018-07-09T10:20:02.315Z,43.90
2018-07-09T10:22:30.441Z,44.50
2018-07-09T10:24:58.855Z,45.00
2018-07-09T10:27:27.543Z,46.00
2018-07-09T10:29:55.656Z,46.90
2018-07-09T10:32:24.922Z,47.40
2018-07-09T10:34:53.152Z,47.80
2018-07-09T10:37:21.308Z,48.00
2018-07-09T10:39:49.396Z,48.30
2018-07-09T10:42:17.508Z,48.40
2018-07-09T10:47:13.911Z,48.90
2018-07-09T10:49:42.172Z,48.80
2018-07-09T10:52:10.766Z,49.50
2018-07-09T10:54:39.836Z,49.60
2018-07-09T10:59:36.936Z,49.90
2018-07-09T11:02:05.123Z,50.30
2018-07-09T11:04:33.229Z,49.60
2018-07-09T11:07:01.898Z,49.80
2018-07-09T11:09:30.149Z,50.40
2018-07-09T11:11:58.436Z,50.10
2018-07-09T11:14:26.724Z,50.20
2018-07-09T11:16:54.953Z,50.00
2018-07-09T11:19:23.290Z,50.10
2018-07-09T11:21:52.511Z,50.30
2018-07-09T11:24:20.622Z,50.00
2018-07-09T11:26:48.979Z,49.70
2018-07-09T11:29:17.232Z,49.80
2018-07-09T11:31:45.359Z,49.90
2018-07-09T11:34:13.884Z,49.70
2018-07-09T11:36:42.073Z,49.30
2018-07-09T11:39:10.175Z,48.70
2018-07-09T11:41:39.184Z,48.60
2018-07-09T11:44:07.351Z,48.30
2018-07-09T11:46:36.299Z,48.00
2018-07-09T11:49:04.402Z,47.60
2018-07-09T11:51:32.527Z,47.60
2018-07-09T11:54:00.745Z,47.80
2018-07-09T11:56:28.889Z,48.00
2018-07-09T12:01:25.761Z,47.80
2018-07-09T12:06:21.917Z,48.70
2018-07-09T12:08:51.317Z,48.90
2018-07-09T12:11:19.792Z,48.60
2018-07-09T12:13:48.029Z,49.20
2018-07-09T12:16:16.837Z,49.40
2018-07-09T12:18:45.019Z,49.30
2018-07-09T12:23:43.901Z,49.70
2018-07-09T12:26:14.749Z,50.60
2018-07-09T12:28:43.014Z,50.60
2018-07-09T12:31:11.151Z,50.40
2018-07-09T12:33:39.327Z,50.40
2018-07-09T12:36:07.900Z,50.20
2018-07-09T12:38:36.044Z,50.70
2018-07-09T12:41:04.637Z,49.80
2018-07-09T12:43:33.329Z,49.10
2018-07-09T12:46:01.476Z,49.50
2018-07-09T12:50:57.617Z,50.20
2018-07-09T12:53:26.273Z,50.60
2018-07-09T12:55:55.073Z,50.60
2018-07-09T12:58:23.437Z,50.80
2018-07-09T13:00:51.568Z,51.20
2018-07-09T13:03:19.720Z,51.70
2018-07-09T13:05:48.494Z,51.80
2018-07-09T13:08:16.782Z,52.10
2018-07-09T13:10:45.133Z,51.70
2018-07-09T13:13:13.292Z,52.10
2018-07-09T13:15:41.434Z,51.40
2018-07-09T13:18:10.230Z,52.00
2018-07-09T13:20:38.310Z,52.00
2018-07-09T13:23:06.483Z,51.60
2018-07-09T13:25:34.632Z,51.80
2018-07-09T13:28:03.489Z,51.10
2018-07-09T13:30:32.030Z,49.90
2018-07-09T13:33:00.532Z,49.10
2018-07-09T13:35:29.158Z,48.90
2018-07-09T13:37:57.832Z,48.90
2018-07-09T13:40:27.325Z,49.30
2018-07-09T13:42:55.424Z,49.70
2018-07-09T13:45:23.602Z,49.70
2018-07-09T13:47:51.728Z,49.70
2018-07-09T13:50:20.285Z,49.70
2018-07-09T13:52:48.956Z,49.50
2018-07-09T13:57:45.214Z,50.20
2018-07-09T14:00:13.315Z,50.70
2018-07-09T14:02:41.583Z,50.50
2018-07-09T14:05:09.760Z,50.60
2018-07-09T14:07:37.882Z,50.60
2018-07-09T14:10:07.963Z,50.40
2018-07-09T14:12:37.526Z,50.10
2018-07-09T14:15:07.197Z,50.60
2018-07-09T14:20:18.953Z,52.30
2018-07-09T14:22:47.749Z,52.60
2018-07-09T14:25:16.393Z,53.20
2018-07-09T14:27:44.576Z,53.30
2018-07-09T14:30:12.808Z,52.90
2018-07-09T14:32:42.602Z,52.70
2018-07-09T14:35:12.167Z,52.80
2018-07-09T14:37:40.905Z,52.40
2018-07-09T14:40:09.241Z,51.70
2018-07-09T14:42:37.587Z,51.70
2018-07-09T14:45:05.939Z,51.50
2018-07-09T14:50:02.278Z,51.10
2018-07-09T14:52:30.635Z,51.30
2018-07-09T14:54:59.066Z,51.70
2018-07-09T14:57:27.297Z,50.70
2018-07-09T14:59:55.467Z,50.70
2018-07-09T15:02:24.072Z,49.70
2018-07-09T15:04:52.649Z,49.50
2018-07-09T15:07:20.807Z,48.90
2018-07-09T15:09:50.142Z,47.60
2018-07-09T15:12:18.305Z,47.40
2018-07-09T15:14:46.527Z,46.50
2018-07-09T15:17:14.659Z,45.90
2018-07-09T15:19:42.937Z,46.10
2018-07-09T15:22:11.121Z,46.40
2018-07-09T15:24:39.388Z,46.70
2018-07-09T15:27:07.595Z,47.00
2018-07-09T15:29:35.776Z,47.10
2018-07-09T15:32:17.257Z,47.60
2018-07-09T15:34:45.539Z,47.40
2018-07-09T15:37:14.933Z,47.70
2018-07-09T15:42:12.459Z,48.80
2018-07-09T15:44:40.849Z,48.50
2018-07-09T15:49:37.980Z,48.90
2018-07-09T15:52:06.144Z,48.80
2018-07-09T15:57:02.353Z,48.60
2018-07-09T15:59:31.899Z,48.20
2018-07-09T16:02:00.076Z,48.20
2018-07-09T16:04:28.175Z,49.00
2018-07-09T16:06:56.271Z,48.20
2018-07-09T16:09:24.435Z,48.10
2018-07-09T16:11:53.331Z,48.10
2018-07-09T16:14:21.446Z,48.40
2018-07-09T16:16:49.635Z,48.40
2018-07-09T16:19:17.755Z,48.10
2018-07-09T16:24:14.185Z,47.70
2018-07-09T16:29:10.870Z,48.20
2018-07-09T16:31:38.931Z,47.90
2018-07-09T16:34:07.357Z,48.10
2018-07-09T16:36:35.482Z,48.00
2018-07-09T16:39:05.115Z,48.10
2018-07-09T16:41:33.817Z,48.30
2018-07-09T16:44:02.795Z,48.50
2018-07-09T16:46:30.973Z,48.60
2018-07-09T16:49:00.258Z,48.80
2018-07-09T16:53:56.327Z,49.00
2018-07-09T16:56:24.640Z,49.00
2018-07-09T16:58:52.818Z,49.00
2018-07-09T17:01:21.170Z,49.20
2018-07-09T17:03:49.378Z,49.30
2018-07-09T17:06:18.051Z,49.50
2018-07-09T17:08:46.696Z,49.40
2018-07-09T17:11:15.010Z,49.70
2018-07-09T17:13:44.111Z,49.60
2018-07-09T17:16:12.286Z,49.70
2018-07-09T17:21:11.558Z,49.80
2018-07-09T17:23:39.674Z,49.60
2018-07-09T17:26:07.949Z,49.70
2018-07-09T17:28:36.180Z,49.50
2018-07-09T17:31:04.341Z,49.30
2018-07-09T17:33:32.536Z,49.50
2018-07-09T17:36:00.746Z,49.70
2018-07-09T17:38:28.838Z,49.80
2018-07-09T17:40:56.984Z,49.80
2018-07-09T17:43:25.147Z,49.80
2018-07-09T17:45:53.317Z,50.00
2018-07-09T17:48:21.550Z,49.00
2018-07-09T17:50:49.649Z,48.40
2018-07-09T17:53:17.864Z,48.50
2018-07-09T17:55:45.994Z,48.70
2018-07-09T17:58:14.129Z,49.00
2018-07-09T18:00:42.255Z,49.60
2018-07-09T18:03:10.473Z,49.70
2018-07-09T18:05:40.231Z,49.80
2018-07-09T18:08:08.614Z,49.80
2018-07-09T18:10:36.814Z,50.20
2018-07-09T18:13:05.092Z,50.60
2018-07-09T18:15:33.274Z,50.90
2018-07-09T18:18:01.427Z,50.90
2018-07-09T18:20:29.619Z,50.80
2018-07-09T18:22:57.962Z,50.30
2018-07-09T18:25:26.111Z,50.30
2018-07-09T18:27:54.276Z,50.00
2018-07-09T18:30:22.376Z,49.00
2018-07-09T18:32:50.749Z,49.30
2018-07-09T18:35:18.915Z,49.30
2018-07-09T18:37:47.255Z,49.30
2018-07-09T18:40:15.374Z,49.60
2018-07-09T18:42:43.556Z,49.70
2018-07-09T18:45:11.722Z,49.90
2018-07-09T18:47:39.956Z,49.90
2018-07-09T18:50:08.128Z,50.60
2018-07-09T18:52:37.263Z,50.20
2018-07-09T18:55:05.471Z,50.50
2018-07-09T19:00:01.519Z,50.80
2018-07-09T19:02:29.823Z,50.90
2018-07-09T19:04:57.932Z,51.20
2018-07-09T19:07:29.697Z,51.30
2018-07-09T19:09:57.855Z,51.30
2018-07-09T19:12:30.535Z,51.00
2018-07-09T19:14:58.679Z,51.00
2018-07-09T19:18:06.971Z,51.00
2018-07-09T19:21:21.906Z,51.10
2018-07-09T19:23:49.185Z,51.30
2018-07-09T19:26:16.455Z,51.50
2018-07-09T19:28:43.789Z,51.90
2018-07-09T19:31:11.033Z,52.00
2018-07-09T19:33:39.153Z,52.20
2018-07-09T19:36:06.780Z,52.30
2018-07-09T19:38:34.309Z,52.50
2018-07-09T19:41:01.515Z,52.90
2018-07-09T19:43:28.739Z,52.60
2018-07-09T19:45:55.999Z,52.70
2018-07-09T19:48:23.247Z,52.60
2018-07-09T19:50:50.490Z,52.90
2018-07-09T19:53:17.759Z,53.10
2018-07-09T19:55:44.953Z,53.30
2018-07-09T19:58:12.257Z,53.40
2018-07-09T20:00:40.324Z,53.40
2018-07-09T20:03:08.312Z,53.50
2018-07-09T20:05:35.817Z,53.70
2018-07-09T20:08:03.719Z,53.80
2018-07-09T20:10:36.374Z,54.00
2018-07-09T20:13:09.033Z,54.10
2018-07-09T20:15:41.696Z,54.30
2018-07-09T20:18:08.907Z,54.40
2018-07-09T20:20:36.100Z,54.60
2018-07-09T20:23:03.306Z,54.80
2018-07-09T20:25:30.705Z,54.80
2018-07-09T20:27:57.945Z,55.00
2018-07-09T20:30:25.180Z,55.10
2018-07-09T20:32:52.505Z,55.40
2018-07-09T20:35:19.680Z,55.90
2018-07-09T20:37:47.497Z,55.50
2018-07-09T20:40:14.748Z,55.60
2018-07-09T20:42:41.994Z,55.60
2018-07-09T20:45:09.278Z,55.90
2018-07-09T20:47:36.544Z,55.80
2018-07-09T20:50:03.762Z,55.70
2018-07-09T20:57:26.167Z,55.20
2018-07-09T20:59:53.417Z,55.20
2018-07-09T21:02:20.736Z,55.10
2018-07-09T21:04:48.014Z,55.00
2018-07-09T21:07:16.786Z,55.20
2018-07-09T21:09:44.064Z,55.10
2018-07-09T21:12:11.439Z,55.20
2018-07-09T21:14:38.736Z,55.50
2018-07-09T21:17:06.039Z,55.50
2018-07-09T21:19:34.286Z,55.80
2018-07-09T21:22:01.624Z,55.90
2018-07-09T21:24:28.989Z,55.90
2018-07-09T21:26:56.232Z,56.00
2018-07-09T21:29:23.420Z,56.30
2018-07-09T21:31:50.708Z,56.40
2018-07-09T21:34:18.130Z,56.40
2018-07-09T21:36:45.354Z,56.60
2018-07-09T21:39:14.686Z,56.80
2018-07-09T21:41:41.895Z,56.90
2018-07-09T21:44:09.116Z,57.00
2018-07-09T21:46:36.353Z,57.10
2018-07-09T21:49:03.563Z,57.30
2018-07-09T21:51:30.893Z,57.50
2018-07-09T21:53:58.091Z,57.60
2018-07-09T21:56:25.457Z,57.70
2018-07-09T21:58:52.662Z,57.80
2018-07-09T22:01:19.923Z,58.00
2018-07-09T22:03:47.213Z,58.20
2018-07-09T22:06:14.512Z,58.30
2018-07-09T22:08:41.771Z,58.50
2018-07-09T22:11:09.021Z,58.60
2018-07-09T22:13:36.239Z,58.70
2018-07-09T22:16:03.585Z,58.60
2018-07-09T22:18:30.815Z,58.90
2018-07-09T22:20:58.069Z,58.90
2018-07-09T22:23:25.280Z,59.00
2018-07-09T22:25:52.813Z,59.10
2018-07-09T22:28:20.088Z,59.10
2018-07-09T22:30:48.275Z,59.10
2018-07-09T22:33:16.438Z,59.80
2018-07-09T22:35:47.527Z,59.50
2018-07-09T22:38:15.653Z,60.10
2018-07-09T22:40:45.340Z,59.60
2018-07-09T22:43:26.822Z,59.80
2018-07-09T22:45:55.230Z,59.90
2018-07-09T22:48:23.483Z,60.00
2018-07-09T22:50:51.688Z,59.80
2018-07-09T22:53:19.871Z,60.00
2018-07-09T22:55:59.453Z,60.00
2018-07-09T22:58:27.835Z,60.20
2018-07-09T23:00:56.014Z,60.20
2018-07-09T23:03:24.187Z,60.30
2018-07-09T23:05:52.439Z,60.40
2018-07-09T23:14:04.040Z,60.80
2018-07-09T23:16:45.061Z,60.90
2018-07-09T23:19:29.664Z,60.00
2018-07-09T23:24:30.413Z,59.10
2018-07-09T23:26:57.812Z,59.50
2018-07-09T23:29:25.029Z,59.60
2018-07-09T23:31:52.409Z,59.40
2018-07-09T23:34:20.594Z,59.40
2018-07-09T23:36:48.090Z,59.40
2018-07-09T23:39:15.295Z,59.50
2018-07-09T23:41:42.515Z,59.50
2018-07-09T23:44:11.299Z,59.50
2018-07-09T23:46:38.477Z,59.30
2018-07-09T23:49:05.701Z,59.20
2018-07-09T23:51:32.907Z,59.00
2018-07-09T23:54:00.215Z,58.80
2018-07-09T23:58:43.686Z,59.00
